OIIP  Payam  Airport

Iran

Add Bookmark
ICAO OIIP
Type Airport
Status Operational
Latitude
35° 46' 33" N
35.776100
Longitude
50° 49' 36" E
50.826698
Local (GMT +4.5 ) UTC
Aug 28, 2016 06:39 am Aug 28, 2016 02:09
Sunrise-Sunset Local UTC
Begin Civil Twilight 06:08 am 01:38
Sunrise 06:34 am 02:04
Sunset 07:40 pm 15:10
End Civil Twilight 08:06 pm 15:36
VFR
VFR
MVFR
MVFR
IFR
IFR
LIFR
LIFR
Unknown
Unavailable

Current Weather

METAR Observed VFR
OIIP 271800Z 35006KT CAVOK 26/M04 Q1019 Sat, Aug 27, 2016 @ 18:00 UTC
(8 Hours, 9 Minutes ago)
Visual Flight Rules
Wind Visibility Conditions
350° at 6 knots (11 kph) 10 km or more
  • No significant weather
Temperatures Readings Precipitation
Current Temp
26°C
79°F
Dewpoint
-4°C
25°F
Humidity 13%
Altimeter 30.09" Hg
Sea Level Pressure 1,019 mb
Field Elevation
1,271 m
4,170 ft
None Recorded

Additional weather within a 92.6km radius of OIIP

Map ICAO Location
OIII 45km E/SE (102°)
OIIE 49.6km SE (144°)
OIIK 87km NW (307°)
VFR
VFR
MVFR
MVFR
IFR
IFR
LIFR
LIFR
Unknown
Unavailable
-
-

CheckWX.com is intended as a tool to help pilots better visualize weather data. It is not intended as a substitute for an official weather briefing obtained from a Flight Service Station. CheckWX.com does not meet the FAA requirements for an official pre-flight weather briefing. Therefore, it's important that pilots still call and obtain an official FSS pre-flight weather briefing.

© 2007-2016 CheckWX.com
02:09:21 UTC